sensor_id;sensor_type;location;lat;lon;timestamp;P1;durP1;ratioP1;P2;durP2;ratioP2
3415;SDS011;1721;51.238;9.562;2023-05-07T00:01:55;31.95;;;15.50;;
3415;SDS011;1721;51.238;9.562;2023-05-07T00:04:21;28.80;;;14.60;;
3415;SDS011;1721;51.238;9.562;2023-05-07T00:06:47;28.98;;;15.60;;
3415;SDS011;1721;51.238;9.562;2023-05-07T00:09:13;30.07;;;15.43;;
3415;SDS011;1721;51.238;9.562;2023-05-07T00:11:39;21.43;;;10.60;;
3415;SDS011;1721;51.238;9.562;2023-05-07T00:14:05;29.23;;;15.52;;
3415;SDS011;1721;51.238;9.562;2023-05-07T00:16:30;34.80;;;14.90;;
3415;SDS011;1721;51.238;9.562;2023-05-07T00:18:56;34.87;;;16.60;;
3415;SDS011;1721;51.238;9.562;2023-05-07T00:21:21;31.70;;;17.27;;
3415;SDS011;1721;51.238;9.562;2023-05-07T00:23:47;34.37;;;16.47;;
3415;SDS011;1721;51.238;9.562;2023-05-07T00:26:13;34.50;;;17.53;;
3415;SDS011;1721;51.238;9.562;2023-05-07T00:28:38;31.60;;;16.40;;
3415;SDS011;1721;51.238;9.562;2023-05-07T00:31:04;36.07;;;17.13;;
3415;SDS011;1721;51.238;9.562;2023-05-07T00:33:30;34.20;;;16.10;;
3415;SDS011;1721;51.238;9.562;2023-05-07T00:35:55;36.60;;;16.97;;
3415;SDS011;1721;51.238;9.562;2023-05-07T00:38:21;29.03;;;14.67;;
3415;SDS011;1721;51.238;9.562;2023-05-07T00:40:46;34.20;;;15.83;;
3415;SDS011;1721;51.238;9.562;2023-05-07T00:43:12;37.63;;;17.27;;
3415;SDS011;1721;51.238;9.562;2023-05-07T00:45:37;33.33;;;16.03;;
3415;SDS011;1721;51.238;9.562;2023-05-07T00:48:03;41.67;;;17.33;;
3415;SDS011;1721;51.238;9.562;2023-05-07T00:50:29;36.60;;;18.30;;
3415;SDS011;1721;51.238;9.562;2023-05-07T00:52:57;40.10;;;15.20;;
3415;SDS011;1721;51.238;9.562;2023-05-07T00:55:23;37.53;;;16.30;;
3415;SDS011;1721;51.238;9.562;2023-05-07T00:57:49;33.37;;;12.60;;
3415;SDS011;1721;51.238;9.562;2023-05-07T01:00:15;37.10;;;16.92;;
3415;SDS011;1721;51.238;9.562;2023-05-07T01:02:42;37.53;;;17.33;;
3415;SDS011;1721;51.238;9.562;2023-05-07T01:05:09;35.50;;;17.45;;
3415;SDS011;1721;51.238;9.562;2023-05-07T01:07:39;33.83;;;17.55;;
3415;SDS011;1721;51.238;9.562;2023-05-07T01:10:07;36.30;;;17.38;;
3415;SDS011;1721;51.238;9.562;2023-05-07T01:12:34;35.40;;;17.92;;
3415;SDS011;1721;51.238;9.562;2023-05-07T01:15:02;34.45;;;17.60;;
3415;SDS011;1721;51.238;9.562;2023-05-07T01:17:29;35.70;;;17.77;;
3415;SDS011;1721;51.238;9.562;2023-05-07T01:19:58;38.20;;;19.30;;
3415;SDS011;1721;51.238;9.562;2023-05-07T01:22:30;39.90;;;20.03;;
3415;SDS011;1721;51.238;9.562;2023-05-07T01:24:57;36.47;;;17.25;;
3415;SDS011;1721;51.238;9.562;2023-05-07T01:27:24;38.78;;;17.85;;
3415;SDS011;1721;51.238;9.562;2023-05-07T01:29:50;37.67;;;18.08;;
3415;SDS011;1721;51.238;9.562;2023-05-07T01:32:16;36.27;;;19.10;;
3415;SDS011;1721;51.238;9.562;2023-05-07T01:34:46;35.42;;;17.33;;
3415;SDS011;1721;51.238;9.562;2023-05-07T01:37:14;42.97;;;19.50;;
3415;SDS011;1721;51.238;9.562;2023-05-07T01:39:40;40.13;;;18.33;;
3415;SDS011;1721;51.238;9.562;2023-05-07T01:42:07;38.05;;;18.20;;
3415;SDS011;1721;51.238;9.562;2023-05-07T01:44:33;37.77;;;18.50;;
3415;SDS011;1721;51.238;9.562;2023-05-07T01:46:59;37.50;;;18.70;;
3415;SDS011;1721;51.238;9.562;2023-05-07T01:49:26;40.70;;;19.55;;
3415;SDS011;1721;51.238;9.562;2023-05-07T01:51:51;36.90;;;18.27;;
3415;SDS011;1721;51.238;9.562;2023-05-07T01:54:17;41.30;;;18.63;;
3415;SDS011;1721;51.238;9.562;2023-05-07T01:56:43;40.20;;;17.60;;
3415;SDS011;1721;51.238;9.562;2023-05-07T01:59:08;37.00;;;19.00;;
3415;SDS011;1721;51.238;9.562;2023-05-07T02:01:34;43.43;;;20.30;;
3415;SDS011;1721;51.238;9.562;2023-05-07T02:04:00;39.23;;;18.53;;
3415;SDS011;1721;51.238;9.562;2023-05-07T02:06:25;37.90;;;17.50;;
3415;SDS011;1721;51.238;9.562;2023-05-07T02:08:51;43.70;;;19.20;;
3415;SDS011;1721;51.238;9.562;2023-05-07T02:11:16;44.20;;;19.03;;
3415;SDS011;1721;51.238;9.562;2023-05-07T02:13:42;42.83;;;20.43;;
3415;SDS011;1721;51.238;9.562;2023-05-07T02:16:07;41.60;;;19.77;;
3415;SDS011;1721;51.238;9.562;2023-05-07T02:18:33;40.83;;;20.30;;
3415;SDS011;1721;51.238;9.562;2023-05-07T02:20:59;42.53;;;20.67;;
3415;SDS011;1721;51.238;9.562;2023-05-07T02:23:25;43.95;;;20.27;;
3415;SDS011;1721;51.238;9.562;2023-05-07T02:25:51;39.07;;;17.80;;
3415;SDS011;1721;51.238;9.562;2023-05-07T02:28:16;42.40;;;21.63;;
3415;SDS011;1721;51.238;9.562;2023-05-07T02:30:42;36.37;;;17.33;;
3415;SDS011;1721;51.238;9.562;2023-05-07T02:33:07;38.93;;;19.10;;
3415;SDS011;1721;51.238;9.562;2023-05-07T02:35:33;41.30;;;19.90;;
3415;SDS011;1721;51.238;9.562;2023-05-07T02:37:59;41.87;;;20.00;;
3415;SDS011;1721;51.238;9.562;2023-05-07T02:40:25;40.13;;;19.90;;
3415;SDS011;1721;51.238;9.562;2023-05-07T02:42:50;40.47;;;19.73;;
3415;SDS011;1721;51.238;9.562;2023-05-07T02:45:16;39.77;;;18.77;;
3415;SDS011;1721;51.238;9.562;2023-05-07T02:47:41;41.33;;;19.20;;
3415;SDS011;1721;51.238;9.562;2023-05-07T02:50:07;48.63;;;19.67;;
3415;SDS011;1721;51.238;9.562;2023-05-07T02:52:33;39.00;;;19.43;;
3415;SDS011;1721;51.238;9.562;2023-05-07T02:54:58;39.80;;;19.50;;
3415;SDS011;1721;51.238;9.562;2023-05-07T02:57:24;43.13;;;19.20;;
3415;SDS011;1721;51.238;9.562;2023-05-07T02:59:49;41.17;;;20.33;;
3415;SDS011;1721;51.238;9.562;2023-05-07T03:02:15;42.42;;;19.25;;
3415;SDS011;1721;51.238;9.562;2023-05-07T03:04:41;34.17;;;18.37;;
3415;SDS011;1721;51.238;9.562;2023-05-07T03:07:07;39.57;;;19.00;;
3415;SDS011;1721;51.238;9.562;2023-05-07T03:09:32;42.33;;;19.10;;
3415;SDS011;1721;51.238;9.562;2023-05-07T03:11:58;41.90;;;19.60;;
3415;SDS011;1721;51.238;9.562;2023-05-07T03:14:23;44.40;;;19.50;;
3415;SDS011;1721;51.238;9.562;2023-05-07T03:16:49;40.57;;;19.50;;
3415;SDS011;1721;51.238;9.562;2023-05-07T03:19:15;39.17;;;20.17;;
3415;SDS011;1721;51.238;9.562;2023-05-07T03:21:40;43.20;;;19.30;;
3415;SDS011;1721;51.238;9.562;2023-05-07T03:24:06;38.10;;;17.97;;
3415;SDS011;1721;51.238;9.562;2023-05-07T03:26:32;43.00;;;18.80;;
3415;SDS011;1721;51.238;9.562;2023-05-07T03:28:57;41.23;;;19.67;;
3415;SDS011;1721;51.238;9.562;2023-05-07T03:31:23;43.60;;;19.07;;
3415;SDS011;1721;51.238;9.562;2023-05-07T03:33:52;37.70;;;19.20;;
3415;SDS011;1721;51.238;9.562;2023-05-07T03:36:19;38.42;;;18.65;;
3415;SDS011;1721;51.238;9.562;2023-05-07T03:38:45;40.90;;;20.45;;
3415;SDS011;1721;51.238;9.562;2023-05-07T03:41:11;41.77;;;17.50;;
3415;SDS011;1721;51.238;9.562;2023-05-07T03:43:37;43.28;;;18.75;;
3415;SDS011;1721;51.238;9.562;2023-05-07T03:46:02;37.77;;;17.00;;
3415;SDS011;1721;51.238;9.562;2023-05-07T03:48:28;41.33;;;19.20;;
3415;SDS011;1721;51.238;9.562;2023-05-07T03:50:53;38.43;;;18.17;;
3415;SDS011;1721;51.238;9.562;2023-05-07T03:53:19;45.43;;;17.27;;
3415;SDS011;1721;51.238;9.562;2023-05-07T03:55:44;39.90;;;18.90;;
3415;SDS011;1721;51.238;9.562;2023-05-07T03:58:10;27.83;;;13.07;;
3415;SDS011;1721;51.238;9.562;2023-05-07T04:00:35;40.20;;;18.97;;
3415;SDS011;1721;51.238;9.562;2023-05-07T04:03:03;37.45;;;17.50;;
3415;SDS011;1721;51.238;9.562;2023-05-07T04:05:29;39.55;;;18.38;;
3415;SDS011;1721;51.238;9.562;2023-05-07T04:07:57;40.30;;;19.03;;
3415;SDS011;1721;51.238;9.562;2023-05-07T04:10:23;41.50;;;17.75;;
3415;SDS011;1721;51.238;9.562;2023-05-07T04:12:48;38.53;;;17.90;;
3415;SDS011;1721;51.238;9.562;2023-05-07T04:15:14;39.00;;;17.90;;
3415;SDS011;1721;51.238;9.562;2023-05-07T04:17:40;40.60;;;17.57;;
3415;SDS011;1721;51.238;9.562;2023-05-07T04:20:08;42.72;;;18.23;;
3415;SDS011;1721;51.238;9.562;2023-05-07T04:22:35;41.78;;;19.25;;
3415;SDS011;1721;51.238;9.562;2023-05-07T04:25:01;39.67;;;18.07;;
3415;SDS011;1721;51.238;9.562;2023-05-07T04:27:27;41.90;;;17.30;;
3415;SDS011;1721;51.238;9.562;2023-05-07T04:29:53;37.40;;;17.00;;
3415;SDS011;1721;51.238;9.562;2023-05-07T04:32:20;37.55;;;17.77;;
3415;SDS011;1721;51.238;9.562;2023-05-07T04:34:46;36.93;;;16.50;;
3415;SDS011;1721;51.238;9.562;2023-05-07T04:37:11;33.97;;;16.40;;
3415;SDS011;1721;51.238;9.562;2023-05-07T04:39:37;35.53;;;16.43;;
3415;SDS011;1721;51.238;9.562;2023-05-07T04:42:03;38.87;;;16.50;;
3415;SDS011;1721;51.238;9.562;2023-05-07T04:44:28;35.93;;;16.30;;
3415;SDS011;1721;51.238;9.562;2023-05-07T04:46:56;32.92;;;15.63;;
3415;SDS011;1721;51.238;9.562;2023-05-07T04:49:21;31.20;;;15.20;;
3415;SDS011;1721;51.238;9.562;2023-05-07T04:51:47;30.80;;;14.60;;
3415;SDS011;1721;51.238;9.562;2023-05-07T04:54:13;37.70;;;15.03;;
3415;SDS011;1721;51.238;9.562;2023-05-07T04:56:38;29.53;;;13.70;;
3415;SDS011;1721;51.238;9.562;2023-05-07T04:59:04;31.17;;;14.97;;
3415;SDS011;1721;51.238;9.562;2023-05-07T05:01:30;38.53;;;14.80;;
3415;SDS011;1721;51.238;9.562;2023-05-07T05:03:56;31.27;;;14.60;;
3415;SDS011;1721;51.238;9.562;2023-05-07T05:06:22;29.87;;;14.37;;
3415;SDS011;1721;51.238;9.562;2023-05-07T05:08:47;35.67;;;13.83;;
3415;SDS011;1721;51.238;9.562;2023-05-07T05:11:13;30.40;;;13.20;;
3415;SDS011;1721;51.238;9.562;2023-05-07T05:13:38;32.93;;;14.20;;
3415;SDS011;1721;51.238;9.562;2023-05-07T05:16:04;30.27;;;13.50;;
3415;SDS011;1721;51.238;9.562;2023-05-07T05:18:30;26.25;;;12.82;;
3415;SDS011;1721;51.238;9.562;2023-05-07T05:20:56;31.67;;;13.50;;
3415;SDS011;1721;51.238;9.562;2023-05-07T05:23:21;25.07;;;11.90;;
3415;SDS011;1721;51.238;9.562;2023-05-07T05:25:47;27.77;;;13.07;;
3415;SDS011;1721;51.238;9.562;2023-05-07T05:28:13;25.63;;;12.73;;
3415;SDS011;1721;51.238;9.562;2023-05-07T05:30:39;26.10;;;11.97;;
3415;SDS011;1721;51.238;9.562;2023-05-07T05:33:04;23.42;;;12.10;;
3415;SDS011;1721;51.238;9.562;2023-05-07T05:35:30;24.03;;;12.10;;
3415;SDS011;1721;51.238;9.562;2023-05-07T05:37:56;26.60;;;11.30;;
3415;SDS011;1721;51.238;9.562;2023-05-07T05:40:22;22.90;;;11.70;;
3415;SDS011;1721;51.238;9.562;2023-05-07T05:42:48;21.43;;;10.70;;
3415;SDS011;1721;51.238;9.562;2023-05-07T05:45:13;25.63;;;11.53;;
3415;SDS011;1721;51.238;9.562;2023-05-07T05:47:39;23.60;;;10.30;;
3415;SDS011;1721;51.238;9.562;2023-05-07T05:50:05;21.00;;;11.13;;
3415;SDS011;1721;51.238;9.562;2023-05-07T05:52:32;22.73;;;11.15;;
3415;SDS011;1721;51.238;9.562;2023-05-07T05:54:57;27.93;;;11.27;;
3415;SDS011;1721;51.238;9.562;2023-05-07T05:57:23;22.57;;;10.83;;
3415;SDS011;1721;51.238;9.562;2023-05-07T05:59:48;23.30;;;11.70;;
3415;SDS011;1721;51.238;9.562;2023-05-07T06:02:14;20.37;;;10.67;;
3415;SDS011;1721;51.238;9.562;2023-05-07T06:04:39;23.50;;;9.67;;
3415;SDS011;1721;51.238;9.562;2023-05-07T06:07:05;23.90;;;10.80;;
3415;SDS011;1721;51.238;9.562;2023-05-07T06:09:31;22.87;;;10.47;;
3415;SDS011;1721;51.238;9.562;2023-05-07T06:11:56;24.67;;;10.47;;
3415;SDS011;1721;51.238;9.562;2023-05-07T06:14:22;25.53;;;11.10;;
3415;SDS011;1721;51.238;9.562;2023-05-07T06:16:47;24.30;;;10.47;;
3415;SDS011;1721;51.238;9.562;2023-05-07T06:19:13;26.03;;;10.33;;
3415;SDS011;1721;51.238;9.562;2023-05-07T06:21:39;21.80;;;9.97;;
3415;SDS011;1721;51.238;9.562;2023-05-07T06:24:05;20.00;;;9.95;;
3415;SDS011;1721;51.238;9.562;2023-05-07T06:26:31;24.00;;;9.93;;
3415;SDS011;1721;51.238;9.562;2023-05-07T06:28:56;19.73;;;7.97;;
3415;SDS011;1721;51.238;9.562;2023-05-07T06:31:22;16.67;;;7.67;;
3415;SDS011;1721;51.238;9.562;2023-05-07T06:33:48;16.47;;;7.93;;
3415;SDS011;1721;51.238;9.562;2023-05-07T06:36:14;21.60;;;9.23;;
3415;SDS011;1721;51.238;9.562;2023-05-07T06:38:40;19.00;;;8.10;;
3415;SDS011;1721;51.238;9.562;2023-05-07T06:41:06;22.47;;;7.13;;
3415;SDS011;1721;51.238;9.562;2023-05-07T06:43:32;16.80;;;7.35;;
3415;SDS011;1721;51.238;9.562;2023-05-07T06:45:58;17.83;;;8.05;;
3415;SDS011;1721;51.238;9.562;2023-05-07T06:48:23;14.80;;;6.70;;
3415;SDS011;1721;51.238;9.562;2023-05-07T06:50:49;16.90;;;8.50;;
3415;SDS011;1721;51.238;9.562;2023-05-07T06:53:15;16.52;;;8.30;;
3415;SDS011;1721;51.238;9.562;2023-05-07T06:55:41;17.30;;;8.00;;
3415;SDS011;1721;51.238;9.562;2023-05-07T06:58:06;22.97;;;7.80;;
3415;SDS011;1721;51.238;9.562;2023-05-07T07:00:32;15.50;;;7.63;;
3415;SDS011;1721;51.238;9.562;2023-05-07T07:02:58;27.70;;;9.30;;
3415;SDS011;1721;51.238;9.562;2023-05-07T07:05:24;18.35;;;8.40;;
3415;SDS011;1721;51.238;9.562;2023-05-07T07:07:50;20.67;;;9.10;;
3415;SDS011;1721;51.238;9.562;2023-05-07T07:10:20;20.27;;;8.90;;
3415;SDS011;1721;51.238;9.562;2023-05-07T07:12:47;18.52;;;8.75;;
3415;SDS011;1721;51.238;9.562;2023-05-07T07:15:14;20.90;;;9.02;;
3415;SDS011;1721;51.238;9.562;2023-05-07T07:17:39;20.85;;;8.65;;
3415;SDS011;1721;51.238;9.562;2023-05-07T07:20:05;24.07;;;9.60;;
3415;SDS011;1721;51.238;9.562;2023-05-07T07:22:31;22.15;;;9.57;;
3415;SDS011;1721;51.238;9.562;2023-05-07T07:24:57;21.77;;;10.53;;
3415;SDS011;1721;51.238;9.562;2023-05-07T07:27:23;19.73;;;9.87;;
3415;SDS011;1721;51.238;9.562;2023-05-07T07:29:48;21.80;;;9.80;;
3415;SDS011;1721;51.238;9.562;2023-05-07T07:32:14;19.10;;;9.90;;
3415;SDS011;1721;51.238;9.562;2023-05-07T07:34:39;22.13;;;10.53;;
3415;SDS011;1721;51.238;9.562;2023-05-07T07:37:05;22.50;;;10.07;;
3415;SDS011;1721;51.238;9.562;2023-05-07T07:39:31;20.07;;;8.10;;
3415;SDS011;1721;51.238;9.562;2023-05-07T07:41:57;21.20;;;9.10;;
3415;SDS011;1721;51.238;9.562;2023-05-07T07:44:23;22.83;;;9.83;;
3415;SDS011;1721;51.238;9.562;2023-05-07T07:46:49;26.60;;;9.70;;
3415;SDS011;1721;51.238;9.562;2023-05-07T07:49:16;17.45;;;8.73;;
3415;SDS011;1721;51.238;9.562;2023-05-07T07:51:42;21.27;;;9.80;;
3415;SDS011;1721;51.238;9.562;2023-05-07T07:54:07;18.90;;;9.60;;
3415;SDS011;1721;51.238;9.562;2023-05-07T07:56:33;20.87;;;9.57;;
3415;SDS011;1721;51.238;9.562;2023-05-07T07:58:59;17.65;;;8.38;;
3415;SDS011;1721;51.238;9.562;2023-05-07T08:01:25;19.43;;;8.33;;
3415;SDS011;1721;51.238;9.562;2023-05-07T08:03:51;16.65;;;8.20;;
3415;SDS011;1721;51.238;9.562;2023-05-07T08:06:17;15.93;;;7.70;;
3415;SDS011;1721;51.238;9.562;2023-05-07T08:08:43;16.48;;;8.00;;
3415;SDS011;1721;51.238;9.562;2023-05-07T08:11:09;12.40;;;7.10;;
3415;SDS011;1721;51.238;9.562;2023-05-07T08:13:35;13.80;;;7.27;;
3415;SDS011;1721;51.238;9.562;2023-05-07T08:16:01;14.77;;;7.50;;
3415;SDS011;1721;51.238;9.562;2023-05-07T08:18:26;16.17;;;6.93;;
3415;SDS011;1721;51.238;9.562;2023-05-07T08:20:53;15.43;;;6.93;;
3415;SDS011;1721;51.238;9.562;2023-05-07T08:23:19;13.30;;;6.60;;
3415;SDS011;1721;51.238;9.562;2023-05-07T08:25:45;13.03;;;6.77;;
3415;SDS011;1721;51.238;9.562;2023-05-07T08:28:11;10.80;;;6.00;;
3415;SDS011;1721;51.238;9.562;2023-05-07T08:30:36;13.50;;;6.60;;
3415;SDS011;1721;51.238;9.562;2023-05-07T08:33:02;12.80;;;5.07;;
3415;SDS011;1721;51.238;9.562;2023-05-07T08:35:28;12.80;;;6.40;;
3415;SDS011;1721;51.238;9.562;2023-05-07T08:37:53;11.90;;;5.47;;
3415;SDS011;1721;51.238;9.562;2023-05-07T08:40:20;13.60;;;6.30;;
3415;SDS011;1721;51.238;9.562;2023-05-07T08:42:48;12.88;;;5.40;;
3415;SDS011;1721;51.238;9.562;2023-05-07T08:45:16;11.40;;;5.30;;
3415;SDS011;1721;51.238;9.562;2023-05-07T08:47:44;10.47;;;5.30;;
3415;SDS011;1721;51.238;9.562;2023-05-07T08:50:12;10.73;;;4.90;;
3415;SDS011;1721;51.238;9.562;2023-05-07T08:52:38;11.23;;;5.37;;
3415;SDS011;1721;51.238;9.562;2023-05-07T08:55:05;10.77;;;5.05;;
3415;SDS011;1721;51.238;9.562;2023-05-07T08:57:32;10.43;;;4.55;;
3415;SDS011;1721;51.238;9.562;2023-05-07T08:59:57;10.20;;;4.80;;
3415;SDS011;1721;51.238;9.562;2023-05-07T09:02:23;11.13;;;5.07;;
3415;SDS011;1721;51.238;9.562;2023-05-07T09:04:48;10.37;;;5.00;;
3415;SDS011;1721;51.238;9.562;2023-05-07T09:07:14;9.80;;;4.77;;
3415;SDS011;1721;51.238;9.562;2023-05-07T09:09:40;9.73;;;4.97;;
3415;SDS011;1721;51.238;9.562;2023-05-07T09:12:05;9.50;;;5.03;;
3415;SDS011;1721;51.238;9.562;2023-05-07T09:14:31;9.50;;;3.97;;
3415;SDS011;1721;51.238;9.562;2023-05-07T09:16:57;9.30;;;4.10;;
3415;SDS011;1721;51.238;9.562;2023-05-07T09:19:23;10.17;;;3.90;;
3415;SDS011;1721;51.238;9.562;2023-05-07T09:21:49;11.85;;;4.70;;
3415;SDS011;1721;51.238;9.562;2023-05-07T09:24:22;11.55;;;4.82;;
3415;SDS011;1721;51.238;9.562;2023-05-07T09:26:47;8.17;;;4.20;;
3415;SDS011;1721;51.238;9.562;2023-05-07T09:29:13;8.37;;;3.80;;
3415;SDS011;1721;51.238;9.562;2023-05-07T09:31:41;10.88;;;4.55;;
3415;SDS011;1721;51.238;9.562;2023-05-07T09:34:07;10.63;;;4.27;;
3415;SDS011;1721;51.238;9.562;2023-05-07T09:36:33;12.10;;;3.83;;
3415;SDS011;1721;51.238;9.562;2023-05-07T09:38:59;8.03;;;3.60;;
3415;SDS011;1721;51.238;9.562;2023-05-07T09:41:25;9.18;;;4.60;;
3415;SDS011;1721;51.238;9.562;2023-05-07T09:43:54;8.52;;;3.47;;
3415;SDS011;1721;51.238;9.562;2023-05-07T09:46:23;9.23;;;3.75;;
3415;SDS011;1721;51.238;9.562;2023-05-07T09:48:52;9.20;;;4.20;;
3415;SDS011;1721;51.238;9.562;2023-05-07T09:51:22;13.25;;;4.07;;
3415;SDS011;1721;51.238;9.562;2023-05-07T09:53:53;8.27;;;3.58;;
3415;SDS011;1721;51.238;9.562;2023-05-07T09:56:18;7.87;;;3.70;;
3415;SDS011;1721;51.238;9.562;2023-05-07T09:58:45;7.85;;;3.70;;
3415;SDS011;1721;51.238;9.562;2023-05-07T10:01:12;9.80;;;3.70;;
3415;SDS011;1721;51.238;9.562;2023-05-07T10:03:39;7.72;;;3.15;;
3415;SDS011;1721;51.238;9.562;2023-05-07T10:06:06;9.65;;;3.78;;
3415;SDS011;1721;51.238;9.562;2023-05-07T10:08:33;9.60;;;4.23;;
3415;SDS011;1721;51.238;9.562;2023-05-07T10:11:00;7.13;;;3.40;;
3415;SDS011;1721;51.238;9.562;2023-05-07T10:13:28;9.13;;;3.40;;
3415;SDS011;1721;51.238;9.562;2023-05-07T10:15:55;7.77;;;3.40;;
3415;SDS011;1721;51.238;9.562;2023-05-07T10:18:21;9.15;;;4.13;;
3415;SDS011;1721;51.238;9.562;2023-05-07T10:20:48;7.40;;;3.53;;
3415;SDS011;1721;51.238;9.562;2023-05-07T10:23:18;7.38;;;3.63;;
3415;SDS011;1721;51.238;9.562;2023-05-07T10:25:49;8.63;;;4.07;;
3415;SDS011;1721;51.238;9.562;2023-05-07T10:28:15;7.70;;;3.17;;
3415;SDS011;1721;51.238;9.562;2023-05-07T10:33:27;7.65;;;3.58;;
3415;SDS011;1721;51.238;9.562;2023-05-07T10:35:58;8.43;;;3.60;;
3415;SDS011;1721;51.238;9.562;2023-05-07T10:38:25;7.30;;;3.30;;
3415;SDS011;1721;51.238;9.562;2023-05-07T10:40:52;9.27;;;3.38;;
3415;SDS011;1721;51.238;9.562;2023-05-07T10:43:18;8.40;;;3.83;;
3415;SDS011;1721;51.238;9.562;2023-05-07T10:45:44;9.07;;;3.57;;
3415;SDS011;1721;51.238;9.562;2023-05-07T10:51:27;7.25;;;4.07;;
3415;SDS011;1721;51.238;9.562;2023-05-07T10:56:42;9.00;;;3.25;;
3415;SDS011;1721;51.238;9.562;2023-05-07T11:01:50;11.43;;;3.50;;
3415;SDS011;1721;51.238;9.562;2023-05-07T11:04:23;9.80;;;4.63;;
3415;SDS011;1721;51.238;9.562;2023-05-07T11:12:16;6.68;;;3.38;;
3415;SDS011;1721;51.238;9.562;2023-05-07T11:14:43;8.77;;;2.75;;
3415;SDS011;1721;51.238;9.562;2023-05-07T11:17:10;8.75;;;3.42;;
3415;SDS011;1721;51.238;9.562;2023-05-07T11:19:52;8.13;;;4.00;;
3415;SDS011;1721;51.238;9.562;2023-05-07T11:25:00;9.95;;;4.15;;
3415;SDS011;1721;51.238;9.562;2023-05-07T11:27:26;8.52;;;3.83;;
3415;SDS011;1721;51.238;9.562;2023-05-07T11:29:52;12.67;;;4.37;;
3415;SDS011;1721;51.238;9.562;2023-05-07T11:32:28;11.07;;;4.70;;
3415;SDS011;1721;51.238;9.562;2023-05-07T11:34:55;11.90;;;4.87;;
3415;SDS011;1721;51.238;9.562;2023-05-07T11:37:22;8.27;;;4.18;;
3415;SDS011;1721;51.238;9.562;2023-05-07T11:39:49;9.67;;;4.10;;
3415;SDS011;1721;51.238;9.562;2023-05-07T11:42:27;11.03;;;4.60;;
3415;SDS011;1721;51.238;9.562;2023-05-07T11:44:54;7.65;;;4.38;;
3415;SDS011;1721;51.238;9.562;2023-05-07T11:47:19;8.40;;;4.37;;
3415;SDS011;1721;51.238;9.562;2023-05-07T11:49:49;9.20;;;3.83;;
3415;SDS011;1721;51.238;9.562;2023-05-07T11:52:16;9.90;;;4.78;;
3415;SDS011;1721;51.238;9.562;2023-05-07T11:54:56;10.07;;;4.90;;
3415;SDS011;1721;51.238;9.562;2023-05-07T11:57:24;8.30;;;3.90;;
3415;SDS011;1721;51.238;9.562;2023-05-07T11:59:56;11.50;;;4.88;;
3415;SDS011;1721;51.238;9.562;2023-05-07T12:02:23;8.60;;;3.90;;
3415;SDS011;1721;51.238;9.562;2023-05-07T12:04:50;6.95;;;3.63;;
3415;SDS011;1721;51.238;9.562;2023-05-07T12:07:16;14.23;;;4.68;;
3415;SDS011;1721;51.238;9.562;2023-05-07T12:09:43;10.13;;;4.50;;
3415;SDS011;1721;51.238;9.562;2023-05-07T12:12:09;8.35;;;4.38;;
3415;SDS011;1721;51.238;9.562;2023-05-07T12:14:42;8.70;;;4.80;;
3415;SDS011;1721;51.238;9.562;2023-05-07T12:17:09;11.32;;;4.65;;
3415;SDS011;1721;51.238;9.562;2023-05-07T12:19:36;9.17;;;4.63;;
3415;SDS011;1721;51.238;9.562;2023-05-07T12:22:03;11.18;;;5.13;;
3415;SDS011;1721;51.238;9.562;2023-05-07T12:24:42;20.10;;;4.88;;
3415;SDS011;1721;51.238;9.562;2023-05-07T12:27:11;9.90;;;5.00;;
3415;SDS011;1721;51.238;9.562;2023-05-07T12:29:38;10.13;;;5.20;;
3415;SDS011;1721;51.238;9.562;2023-05-07T12:32:06;10.20;;;4.85;;
3415;SDS011;1721;51.238;9.562;2023-05-07T12:34:32;9.10;;;5.10;;
3415;SDS011;1721;51.238;9.562;2023-05-07T12:36:57;10.60;;;5.00;;
3415;SDS011;1721;51.238;9.562;2023-05-07T12:39:28;11.60;;;4.90;;
3415;SDS011;1721;51.238;9.562;2023-05-07T12:41:57;10.50;;;5.10;;
3415;SDS011;1721;51.238;9.562;2023-05-07T12:44:25;9.43;;;4.90;;
3415;SDS011;1721;51.238;9.562;2023-05-07T12:46:54;8.98;;;4.55;;
3415;SDS011;1721;51.238;9.562;2023-05-07T12:49:20;10.70;;;5.00;;
3415;SDS011;1721;51.238;9.562;2023-05-07T12:51:48;9.33;;;4.83;;
3415;SDS011;1721;51.238;9.562;2023-05-07T12:54:37;11.00;;;5.20;;
3415;SDS011;1721;51.238;9.562;2023-05-07T12:57:05;13.33;;;4.97;;
3415;SDS011;1721;51.238;9.562;2023-05-07T12:59:38;11.07;;;6.00;;
3415;SDS011;1721;51.238;9.562;2023-05-07T13:02:05;10.90;;;4.78;;
3415;SDS011;1721;51.238;9.562;2023-05-07T13:04:31;10.05;;;5.20;;
3415;SDS011;1721;51.238;9.562;2023-05-07T13:06:58;13.63;;;4.83;;
3415;SDS011;1721;51.238;9.562;2023-05-07T13:09:24;13.70;;;5.22;;
3415;SDS011;1721;51.238;9.562;2023-05-07T13:11:49;8.87;;;4.90;;
3415;SDS011;1721;51.238;9.562;2023-05-07T13:14:15;15.00;;;5.87;;
3415;SDS011;1721;51.238;9.562;2023-05-07T13:16:41;9.33;;;4.80;;
3415;SDS011;1721;51.238;9.562;2023-05-07T13:19:06;12.90;;;4.90;;
3415;SDS011;1721;51.238;9.562;2023-05-07T13:21:32;7.90;;;4.00;;
3415;SDS011;1721;51.238;9.562;2023-05-07T13:23:57;14.27;;;6.13;;
3415;SDS011;1721;51.238;9.562;2023-05-07T13:26:23;10.00;;;5.40;;
3415;SDS011;1721;51.238;9.562;2023-05-07T13:28:50;10.60;;;5.80;;
3415;SDS011;1721;51.238;9.562;2023-05-07T13:31:16;11.30;;;5.60;;
3415;SDS011;1721;51.238;9.562;2023-05-07T13:33:42;10.75;;;5.65;;
3415;SDS011;1721;51.238;9.562;2023-05-07T13:36:08;11.53;;;6.00;;
3415;SDS011;1721;51.238;9.562;2023-05-07T13:38:34;10.98;;;6.28;;
3415;SDS011;1721;51.238;9.562;2023-05-07T13:41:00;21.43;;;5.30;;
3415;SDS011;1721;51.238;9.562;2023-05-07T13:43:25;13.67;;;6.13;;
3415;SDS011;1721;51.238;9.562;2023-05-07T13:45:51;13.47;;;6.03;;
3415;SDS011;1721;51.238;9.562;2023-05-07T13:48:16;12.63;;;5.70;;
3415;SDS011;1721;51.238;9.562;2023-05-07T13:50:42;10.87;;;5.60;;
3415;SDS011;1721;51.238;9.562;2023-05-07T13:53:08;16.33;;;6.10;;
3415;SDS011;1721;51.238;9.562;2023-05-07T13:55:33;10.60;;;5.53;;
3415;SDS011;1721;51.238;9.562;2023-05-07T13:57:59;10.20;;;4.70;;
3415;SDS011;1721;51.238;9.562;2023-05-07T14:00:27;12.03;;;6.27;;
3415;SDS011;1721;51.238;9.562;2023-05-07T14:02:54;12.53;;;6.20;;
3415;SDS011;1721;51.238;9.562;2023-05-07T14:05:20;10.77;;;5.63;;
3415;SDS011;1721;51.238;9.562;2023-05-07T14:07:48;10.30;;;5.28;;
3415;SDS011;1721;51.238;9.562;2023-05-07T14:10:16;11.63;;;5.63;;
3415;SDS011;1721;51.238;9.562;2023-05-07T14:12:43;10.40;;;5.90;;
3415;SDS011;1721;51.238;9.562;2023-05-07T14:15:10;11.07;;;6.20;;
3415;SDS011;1721;51.238;9.562;2023-05-07T14:17:36;11.23;;;5.90;;
3415;SDS011;1721;51.238;9.562;2023-05-07T14:20:01;10.27;;;5.80;;
3415;SDS011;1721;51.238;9.562;2023-05-07T14:22:27;12.63;;;5.83;;
3415;SDS011;1721;51.238;9.562;2023-05-07T14:24:53;10.43;;;4.70;;
3415;SDS011;1721;51.238;9.562;2023-05-07T14:27:18;13.30;;;5.77;;
3415;SDS011;1721;51.238;9.562;2023-05-07T14:29:44;11.73;;;5.30;;
3415;SDS011;1721;51.238;9.562;2023-05-07T14:32:10;10.60;;;5.00;;
3415;SDS011;1721;51.238;9.562;2023-05-07T14:34:36;12.40;;;6.00;;
3415;SDS011;1721;51.238;9.562;2023-05-07T14:37:02;11.20;;;5.80;;
3415;SDS011;1721;51.238;9.562;2023-05-07T14:39:28;10.00;;;5.47;;
3415;SDS011;1721;51.238;9.562;2023-05-07T14:41:54;10.00;;;5.47;;
3415;SDS011;1721;51.238;9.562;2023-05-07T14:44:21;11.57;;;6.00;;
3415;SDS011;1721;51.238;9.562;2023-05-07T14:46:47;12.40;;;5.57;;
3415;SDS011;1721;51.238;9.562;2023-05-07T14:49:13;9.33;;;5.30;;
3415;SDS011;1721;51.238;9.562;2023-05-07T14:51:45;12.97;;;5.77;;
3415;SDS011;1721;51.238;9.562;2023-05-07T14:54:14;11.10;;;6.20;;
3415;SDS011;1721;51.238;9.562;2023-05-07T14:56:40;9.98;;;5.60;;
3415;SDS011;1721;51.238;9.562;2023-05-07T14:59:07;10.63;;;5.63;;
3415;SDS011;1721;51.238;9.562;2023-05-07T15:01:36;10.80;;;4.90;;
3415;SDS011;1721;51.238;9.562;2023-05-07T15:04:04;9.70;;;5.30;;
3415;SDS011;1721;51.238;9.562;2023-05-07T15:06:30;10.50;;;5.80;;
3415;SDS011;1721;51.238;9.562;2023-05-07T15:08:56;10.15;;;5.20;;
3415;SDS011;1721;51.238;9.562;2023-05-07T15:11:22;10.63;;;5.93;;
3415;SDS011;1721;51.238;9.562;2023-05-07T15:13:48;11.20;;;6.13;;